sensor_id;sensor_type;location;lat;lon;timestamp;temperature;humidity
78325;DHT22;67584;51.400;6.692;2023-12-28T00:00:18;9.40;84.10
78325;DHT22;67584;51.400;6.692;2023-12-28T00:02:43;9.50;83.60
78325;DHT22;67584;51.400;6.692;2023-12-28T00:05:09;9.60;82.80
78325;DHT22;67584;51.400;6.692;2023-12-28T00:07:35;9.70;82.70
78325;DHT22;67584;51.400;6.692;2023-12-28T00:10:02;9.70;82.10
78325;DHT22;67584;51.400;6.692;2023-12-28T00:12:28;9.90;81.60
78325;DHT22;67584;51.400;6.692;2023-12-28T00:14:53;9.80;81.30
78325;DHT22;67584;51.400;6.692;2023-12-28T00:17:19;10.00;80.90
78325;DHT22;67584;51.400;6.692;2023-12-28T00:19:45;10.00;80.70
78325;DHT22;67584;51.400;6.692;2023-12-28T00:22:11;9.90;80.90
78325;DHT22;67584;51.400;6.692;2023-12-28T00:24:36;9.90;81.00
78325;DHT22;67584;51.400;6.692;2023-12-28T00:27:02;9.90;80.80
78325;DHT22;67584;51.400;6.692;2023-12-28T00:29:28;9.90;80.60
78325;DHT22;67584;51.400;6.692;2023-12-28T00:31:54;9.90;80.60
78325;DHT22;67584;51.400;6.692;2023-12-28T00:34:20;9.90;80.50
78325;DHT22;67584;51.400;6.692;2023-12-28T00:36:46;9.90;80.40
78325;DHT22;67584;51.400;6.692;2023-12-28T00:39:12;10.00;80.50
78325;DHT22;67584;51.400;6.692;2023-12-28T00:41:38;10.10;79.90
78325;DHT22;67584;51.400;6.692;2023-12-28T00:44:04;10.10;79.60
78325;DHT22;67584;51.400;6.692;2023-12-28T00:46:32;10.10;79.40
78325;DHT22;67584;51.400;6.692;2023-12-28T00:48:57;10.10;79.50
78325;DHT22;67584;51.400;6.692;2023-12-28T00:51:23;10.10;80.00
78325;DHT22;67584;51.400;6.692;2023-12-28T00:53:49;10.00;80.10
78325;DHT22;67584;51.400;6.692;2023-12-28T00:56:15;10.00;80.20
78325;DHT22;67584;51.400;6.692;2023-12-28T00:58:41;9.90;80.30
78325;DHT22;67584;51.400;6.692;2023-12-28T01:01:09;9.90;80.30
78325;DHT22;67584;51.400;6.692;2023-12-28T01:03:35;10.00;80.30
78325;DHT22;67584;51.400;6.692;2023-12-28T01:06:01;9.90;80.30
78325;DHT22;67584;51.400;6.692;2023-12-28T01:08:27;9.90;80.20
78325;DHT22;67584;51.400;6.692;2023-12-28T01:10:54;10.00;80.40
78325;DHT22;67584;51.400;6.692;2023-12-28T01:13:20;10.00;80.70
78325;DHT22;67584;51.400;6.692;2023-12-28T01:15:45;9.90;80.70
78325;DHT22;67584;51.400;6.692;2023-12-28T01:18:11;10.00;81.10
78325;DHT22;67584;51.400;6.692;2023-12-28T01:20:37;9.90;81.00
78325;DHT22;67584;51.400;6.692;2023-12-28T01:23:03;9.90;81.30
78325;DHT22;67584;51.400;6.692;2023-12-28T01:25:29;9.90;81.50
78325;DHT22;67584;51.400;6.692;2023-12-28T01:27:55;9.80;81.90
78325;DHT22;67584;51.400;6.692;2023-12-28T01:30:20;9.80;82.10
78325;DHT22;67584;51.400;6.692;2023-12-28T01:32:46;9.70;82.20
78325;DHT22;67584;51.400;6.692;2023-12-28T01:35:13;9.70;82.30
78325;DHT22;67584;51.400;6.692;2023-12-28T01:37:39;9.70;82.10
78325;DHT22;67584;51.400;6.692;2023-12-28T01:40:05;9.80;82.10
78325;DHT22;67584;51.400;6.692;2023-12-28T01:42:32;9.70;82.10
78325;DHT22;67584;51.400;6.692;2023-12-28T01:44:57;9.70;82.00
78325;DHT22;67584;51.400;6.692;2023-12-28T01:47:25;9.70;82.30
78325;DHT22;67584;51.400;6.692;2023-12-28T01:49:51;9.70;82.20
78325;DHT22;67584;51.400;6.692;2023-12-28T01:52:18;9.60;82.10
78325;DHT22;67584;51.400;6.692;2023-12-28T01:54:44;9.90;82.00
78325;DHT22;67584;51.400;6.692;2023-12-28T01:57:11;9.80;81.90
78325;DHT22;67584;51.400;6.692;2023-12-28T01:59:37;9.80;81.90
78325;DHT22;67584;51.400;6.692;2023-12-28T02:02:03;9.70;82.10
78325;DHT22;67584;51.400;6.692;2023-12-28T02:04:29;9.90;82.10
78325;DHT22;67584;51.400;6.692;2023-12-28T02:06:57;9.80;82.00
78325;DHT22;67584;51.400;6.692;2023-12-28T02:09:24;9.80;82.10
78325;DHT22;67584;51.400;6.692;2023-12-28T02:11:51;9.90;81.90
78325;DHT22;67584;51.400;6.692;2023-12-28T02:14:17;9.90;81.70
78325;DHT22;67584;51.400;6.692;2023-12-28T02:19:52;10.00;81.70
78325;DHT22;67584;51.400;6.692;2023-12-28T02:22:21;10.10;81.50
78325;DHT22;67584;51.400;6.692;2023-12-28T02:25:12;10.00;81.30
78325;DHT22;67584;51.400;6.692;2023-12-28T02:27:42;10.10;81.40
78325;DHT22;67584;51.400;6.692;2023-12-28T02:30:09;10.10;81.40
78325;DHT22;67584;51.400;6.692;2023-12-28T02:35:43;10.20;81.20
78325;DHT22;67584;51.400;6.692;2023-12-28T02:38:12;10.10;81.50
78325;DHT22;67584;51.400;6.692;2023-12-28T02:40:40;10.20;81.50
78325;DHT22;67584;51.400;6.692;2023-12-28T02:43:07;10.20;81.50
78325;DHT22;67584;51.400;6.692;2023-12-28T02:45:34;10.20;81.70
78325;DHT22;67584;51.400;6.692;2023-12-28T02:48:00;10.20;81.80
78325;DHT22;67584;51.400;6.692;2023-12-28T02:50:26;10.20;82.00
78325;DHT22;67584;51.400;6.692;2023-12-28T02:52:52;10.20;82.00
78325;DHT22;67584;51.400;6.692;2023-12-28T02:55:18;10.20;82.20
78325;DHT22;67584;51.400;6.692;2023-12-28T02:57:44;10.30;81.90
78325;DHT22;67584;51.400;6.692;2023-12-28T03:00:10;10.20;81.90
78325;DHT22;67584;51.400;6.692;2023-12-28T03:02:37;10.40;81.80
78325;DHT22;67584;51.400;6.692;2023-12-28T03:05:07;10.40;81.50
78325;DHT22;67584;51.400;6.692;2023-12-28T03:07:34;10.40;81.40
78325;DHT22;67584;51.400;6.692;2023-12-28T03:10:01;10.40;81.40
78325;DHT22;67584;51.400;6.692;2023-12-28T03:12:28;10.50;81.20
78325;DHT22;67584;51.400;6.692;2023-12-28T03:14:54;10.50;81.40
78325;DHT22;67584;51.400;6.692;2023-12-28T03:17:20;10.50;81.50
78325;DHT22;67584;51.400;6.692;2023-12-28T03:19:46;10.40;81.10
78325;DHT22;67584;51.400;6.692;2023-12-28T03:22:12;10.40;80.90
78325;DHT22;67584;51.400;6.692;2023-12-28T03:24:37;10.60;80.80
78325;DHT22;67584;51.400;6.692;2023-12-28T03:27:04;10.50;80.70
78325;DHT22;67584;51.400;6.692;2023-12-28T03:29:30;10.40;81.10
78325;DHT22;67584;51.400;6.692;2023-12-28T03:31:56;10.50;81.00
78325;DHT22;67584;51.400;6.692;2023-12-28T03:34:22;10.40;81.50
78325;DHT22;67584;51.400;6.692;2023-12-28T03:36:49;10.30;81.50
78325;DHT22;67584;51.400;6.692;2023-12-28T03:39:15;10.30;81.80
78325;DHT22;67584;51.400;6.692;2023-12-28T03:41:40;10.30;81.90
78325;DHT22;67584;51.400;6.692;2023-12-28T03:44:06;10.20;81.80
78325;DHT22;67584;51.400;6.692;2023-12-28T03:46:35;10.20;82.00
78325;DHT22;67584;51.400;6.692;2023-12-28T03:49:00;10.30;82.30
78325;DHT22;67584;51.400;6.692;2023-12-28T03:51:26;10.20;82.20
78325;DHT22;67584;51.400;6.692;2023-12-28T03:53:52;10.10;82.50
78325;DHT22;67584;51.400;6.692;2023-12-28T03:56:21;10.10;82.50
78325;DHT22;67584;51.400;6.692;2023-12-28T03:58:47;10.00;82.60
78325;DHT22;67584;51.400;6.692;2023-12-28T04:01:12;10.00;82.90
78325;DHT22;67584;51.400;6.692;2023-12-28T04:03:38;10.00;83.20
78325;DHT22;67584;51.400;6.692;2023-12-28T04:06:05;9.90;83.40
78325;DHT22;67584;51.400;6.692;2023-12-28T04:08:30;9.80;83.40
78325;DHT22;67584;51.400;6.692;2023-12-28T04:10:56;9.90;83.30
78325;DHT22;67584;51.400;6.692;2023-12-28T04:13:22;9.90;83.50
78325;DHT22;67584;51.400;6.692;2023-12-28T04:15:47;9.90;83.50
78325;DHT22;67584;51.400;6.692;2023-12-28T04:18:13;10.00;83.30
78325;DHT22;67584;51.400;6.692;2023-12-28T04:20:39;10.00;83.30
78325;DHT22;67584;51.400;6.692;2023-12-28T04:23:04;9.90;83.30
78325;DHT22;67584;51.400;6.692;2023-12-28T04:25:30;10.00;83.20
78325;DHT22;67584;51.400;6.692;2023-12-28T04:27:56;10.00;83.20
78325;DHT22;67584;51.400;6.692;2023-12-28T04:30:21;10.00;83.10
78325;DHT22;67584;51.400;6.692;2023-12-28T04:32:47;10.00;83.10
78325;DHT22;67584;51.400;6.692;2023-12-28T04:35:13;10.00;83.00
78325;DHT22;67584;51.400;6.692;2023-12-28T04:37:39;10.00;82.90
78325;DHT22;67584;51.400;6.692;2023-12-28T04:40:04;10.00;82.90
78325;DHT22;67584;51.400;6.692;2023-12-28T04:42:31;10.00;83.00
78325;DHT22;67584;51.400;6.692;2023-12-28T04:44:57;10.10;82.80
78325;DHT22;67584;51.400;6.692;2023-12-28T04:47:22;10.00;83.00
78325;DHT22;67584;51.400;6.692;2023-12-28T04:49:48;10.00;82.90
78325;DHT22;67584;51.400;6.692;2023-12-28T04:52:14;10.00;83.00
78325;DHT22;67584;51.400;6.692;2023-12-28T04:54:42;9.90;83.10
78325;DHT22;67584;51.400;6.692;2023-12-28T04:57:08;9.90;82.90
78325;DHT22;67584;51.400;6.692;2023-12-28T04:59:40;10.00;82.90
78325;DHT22;67584;51.400;6.692;2023-12-28T05:02:06;10.00;82.90
78325;DHT22;67584;51.400;6.692;2023-12-28T05:04:32;10.00;82.80
78325;DHT22;67584;51.400;6.692;2023-12-28T05:06:58;9.90;82.80
78325;DHT22;67584;51.400;6.692;2023-12-28T05:09:24;10.00;82.70
78325;DHT22;67584;51.400;6.692;2023-12-28T05:11:50;10.10;82.70
78325;DHT22;67584;51.400;6.692;2023-12-28T05:14:15;10.10;82.60
78325;DHT22;67584;51.400;6.692;2023-12-28T05:16:41;10.00;82.50
78325;DHT22;67584;51.400;6.692;2023-12-28T05:19:07;10.10;82.40
78325;DHT22;67584;51.400;6.692;2023-12-28T05:21:34;10.10;82.10
78325;DHT22;67584;51.400;6.692;2023-12-28T05:23:59;10.10;82.30
78325;DHT22;67584;51.400;6.692;2023-12-28T05:26:25;10.10;82.30
78325;DHT22;67584;51.400;6.692;2023-12-28T05:28:51;10.10;82.20
78325;DHT22;67584;51.400;6.692;2023-12-28T05:31:17;10.10;82.10
78325;DHT22;67584;51.400;6.692;2023-12-28T05:33:43;10.20;82.20
78325;DHT22;67584;51.400;6.692;2023-12-28T05:36:08;10.10;82.20
78325;DHT22;67584;51.400;6.692;2023-12-28T05:38:34;10.10;82.00
78325;DHT22;67584;51.400;6.692;2023-12-28T05:41:00;10.10;81.90
78325;DHT22;67584;51.400;6.692;2023-12-28T05:43:25;10.20;81.80
78325;DHT22;67584;51.400;6.692;2023-12-28T05:45:51;10.20;81.90
78325;DHT22;67584;51.400;6.692;2023-12-28T05:48:17;10.20;81.80
78325;DHT22;67584;51.400;6.692;2023-12-28T05:50:42;10.10;81.90
78325;DHT22;67584;51.400;6.692;2023-12-28T05:53:08;10.20;82.00
78325;DHT22;67584;51.400;6.692;2023-12-28T05:55:40;10.10;82.00
78325;DHT22;67584;51.400;6.692;2023-12-28T05:58:06;10.10;81.60
78325;DHT22;67584;51.400;6.692;2023-12-28T06:00:31;10.20;81.60
78325;DHT22;67584;51.400;6.692;2023-12-28T06:02:57;10.20;81.60
78325;DHT22;67584;51.400;6.692;2023-12-28T06:05:23;10.20;82.00
78325;DHT22;67584;51.400;6.692;2023-12-28T06:07:48;10.20;81.60
78325;DHT22;67584;51.400;6.692;2023-12-28T06:10:14;10.20;81.50
78325;DHT22;67584;51.400;6.692;2023-12-28T06:12:40;10.20;81.70
78325;DHT22;67584;51.400;6.692;2023-12-28T06:15:06;10.20;81.40
78325;DHT22;67584;51.400;6.692;2023-12-28T06:17:32;10.10;81.30
78325;DHT22;67584;51.400;6.692;2023-12-28T06:19:57;10.10;81.50
78325;DHT22;67584;51.400;6.692;2023-12-28T06:22:23;10.20;81.40
78325;DHT22;67584;51.400;6.692;2023-12-28T06:24:56;10.20;81.20
78325;DHT22;67584;51.400;6.692;2023-12-28T06:27:22;10.30;80.90
78325;DHT22;67584;51.400;6.692;2023-12-28T06:29:49;10.20;80.90
78325;DHT22;67584;51.400;6.692;2023-12-28T06:32:15;10.20;80.70
78325;DHT22;67584;51.400;6.692;2023-12-28T06:34:41;10.30;80.70
78325;DHT22;67584;51.400;6.692;2023-12-28T06:37:06;10.20;80.70
78325;DHT22;67584;51.400;6.692;2023-12-28T06:39:32;10.30;80.70
78325;DHT22;67584;51.400;6.692;2023-12-28T06:41:57;10.10;80.80
78325;DHT22;67584;51.400;6.692;2023-12-28T06:44:23;10.20;80.50
78325;DHT22;67584;51.400;6.692;2023-12-28T06:46:49;10.20;80.70
78325;DHT22;67584;51.400;6.692;2023-12-28T06:49:14;10.20;80.60
78325;DHT22;67584;51.400;6.692;2023-12-28T06:51:40;10.20;80.80
78325;DHT22;67584;51.400;6.692;2023-12-28T06:54:08;10.30;80.50
78325;DHT22;67584;51.400;6.692;2023-12-28T06:56:34;10.20;80.20
78325;DHT22;67584;51.400;6.692;2023-12-28T06:59:00;10.30;80.30
78325;DHT22;67584;51.400;6.692;2023-12-28T07:01:26;10.20;80.50
78325;DHT22;67584;51.400;6.692;2023-12-28T07:03:51;10.20;80.50
78325;DHT22;67584;51.400;6.692;2023-12-28T07:06:17;10.30;80.60
78325;DHT22;67584;51.400;6.692;2023-12-28T07:08:43;10.20;80.40
78325;DHT22;67584;51.400;6.692;2023-12-28T07:11:12;10.30;80.10
78325;DHT22;67584;51.400;6.692;2023-12-28T07:13:38;10.30;79.90
78325;DHT22;67584;51.400;6.692;2023-12-28T07:16:04;10.30;79.90
78325;DHT22;67584;51.400;6.692;2023-12-28T07:18:30;10.30;79.80
78325;DHT22;67584;51.400;6.692;2023-12-28T07:20:55;10.40;79.90
78325;DHT22;67584;51.400;6.692;2023-12-28T07:23:21;10.40;79.50
78325;DHT22;67584;51.400;6.692;2023-12-28T07:25:47;10.40;79.30
78325;DHT22;67584;51.400;6.692;2023-12-28T07:28:13;10.50;79.40
78325;DHT22;67584;51.400;6.692;2023-12-28T07:30:38;10.40;79.10
78325;DHT22;67584;51.400;6.692;2023-12-28T07:33:04;10.50;79.30
78325;DHT22;67584;51.400;6.692;2023-12-28T07:35:30;10.40;79.40
78325;DHT22;67584;51.400;6.692;2023-12-28T07:37:55;10.40;79.50
78325;DHT22;67584;51.400;6.692;2023-12-28T07:40:21;10.40;79.30
78325;DHT22;67584;51.400;6.692;2023-12-28T07:42:47;10.60;79.50
78325;DHT22;67584;51.400;6.692;2023-12-28T07:45:12;10.50;79.30
78325;DHT22;67584;51.400;6.692;2023-12-28T07:47:38;10.50;79.20
78325;DHT22;67584;51.400;6.692;2023-12-28T07:50:04;10.50;79.10
78325;DHT22;67584;51.400;6.692;2023-12-28T07:52:30;10.50;79.00
78325;DHT22;67584;51.400;6.692;2023-12-28T07:54:55;10.50;78.90
78325;DHT22;67584;51.400;6.692;2023-12-28T07:57:21;10.40;78.50
78325;DHT22;67584;51.400;6.692;2023-12-28T07:59:47;10.60;78.50
78325;DHT22;67584;51.400;6.692;2023-12-28T08:02:12;10.60;78.30
78325;DHT22;67584;51.400;6.692;2023-12-28T08:04:38;10.60;78.30
78325;DHT22;67584;51.400;6.692;2023-12-28T08:07:04;10.70;77.80
78325;DHT22;67584;51.400;6.692;2023-12-28T08:09:30;10.70;78.00
78325;DHT22;67584;51.400;6.692;2023-12-28T08:11:55;10.70;77.90
78325;DHT22;67584;51.400;6.692;2023-12-28T08:14:21;10.80;78.00
78325;DHT22;67584;51.400;6.692;2023-12-28T08:16:47;10.80;77.80
78325;DHT22;67584;51.400;6.692;2023-12-28T08:19:13;10.70;78.10
78325;DHT22;67584;51.400;6.692;2023-12-28T08:21:39;10.60;78.00
78325;DHT22;67584;51.400;6.692;2023-12-28T08:24:05;10.60;78.20
78325;DHT22;67584;51.400;6.692;2023-12-28T08:26:31;10.70;78.20
78325;DHT22;67584;51.400;6.692;2023-12-28T08:28:58;10.70;77.90
78325;DHT22;67584;51.400;6.692;2023-12-28T08:31:24;10.70;78.10
78325;DHT22;67584;51.400;6.692;2023-12-28T08:33:50;10.70;78.10
78325;DHT22;67584;51.400;6.692;2023-12-28T08:36:16;10.70;77.90
78325;DHT22;67584;51.400;6.692;2023-12-28T08:38:43;10.70;77.80
78325;DHT22;67584;51.400;6.692;2023-12-28T08:41:21;10.70;77.70
78325;DHT22;67584;51.400;6.692;2023-12-28T08:43:47;10.80;77.80
78325;DHT22;67584;51.400;6.692;2023-12-28T08:46:13;10.80;77.90
78325;DHT22;67584;51.400;6.692;2023-12-28T08:48:40;10.80;77.60
78325;DHT22;67584;51.400;6.692;2023-12-28T08:51:06;10.80;77.80
78325;DHT22;67584;51.400;6.692;2023-12-28T08:53:32;10.70;77.70
78325;DHT22;67584;51.400;6.692;2023-12-28T08:55:57;10.80;77.60
78325;DHT22;67584;51.400;6.692;2023-12-28T08:58:23;10.80;77.30
78325;DHT22;67584;51.400;6.692;2023-12-28T09:00:49;10.90;77.20
78325;DHT22;67584;51.400;6.692;2023-12-28T09:03:14;11.00;77.00
78325;DHT22;67584;51.400;6.692;2023-12-28T09:05:40;10.90;77.00
78325;DHT22;67584;51.400;6.692;2023-12-28T09:08:06;11.00;77.10
78325;DHT22;67584;51.400;6.692;2023-12-28T09:10:32;10.90;77.00
78325;DHT22;67584;51.400;6.692;2023-12-28T09:12:58;11.00;76.70
78325;DHT22;67584;51.400;6.692;2023-12-28T09:15:24;11.10;76.90
78325;DHT22;67584;51.400;6.692;2023-12-28T09:17:49;11.10;75.90
78325;DHT22;67584;51.400;6.692;2023-12-28T09:20:16;11.20;76.20
78325;DHT22;67584;51.400;6.692;2023-12-28T09:22:41;11.30;75.90
78325;DHT22;67584;51.400;6.692;2023-12-28T09:25:08;11.30;76.20
78325;DHT22;67584;51.400;6.692;2023-12-28T09:27:33;11.20;75.90
78325;DHT22;67584;51.400;6.692;2023-12-28T09:29:59;11.40;75.40
78325;DHT22;67584;51.400;6.692;2023-12-28T09:32:25;11.40;75.70
78325;DHT22;67584;51.400;6.692;2023-12-28T09:34:50;11.50;75.60
78325;DHT22;67584;51.400;6.692;2023-12-28T09:37:16;11.50;75.60
78325;DHT22;67584;51.400;6.692;2023-12-28T09:39:42;11.50;75.60
78325;DHT22;67584;51.400;6.692;2023-12-28T09:42:25;11.50;75.30
78325;DHT22;67584;51.400;6.692;2023-12-28T09:44:55;11.60;75.50
78325;DHT22;67584;51.400;6.692;2023-12-28T09:47:21;11.50;74.90
78325;DHT22;67584;51.400;6.692;2023-12-28T09:49:47;11.70;74.80
78325;DHT22;67584;51.400;6.692;2023-12-28T09:52:13;11.80;74.20
78325;DHT22;67584;51.400;6.692;2023-12-28T09:54:38;12.00;73.90
78325;DHT22;67584;51.400;6.692;2023-12-28T09:57:05;12.30;73.70
78325;DHT22;67584;51.400;6.692;2023-12-28T09:59:32;12.50;73.50
78325;DHT22;67584;51.400;6.692;2023-12-28T10:01:58;13.00;72.00
78325;DHT22;67584;51.400;6.692;2023-12-28T10:04:26;13.40;70.00
78325;DHT22;67584;51.400;6.692;2023-12-28T10:06:54;13.50;69.90
78325;DHT22;67584;51.400;6.692;2023-12-28T10:09:21;13.40;68.20
78325;DHT22;67584;51.400;6.692;2023-12-28T10:11:47;13.00;69.80
78325;DHT22;67584;51.400;6.692;2023-12-28T10:14:13;12.80;70.70
78325;DHT22;67584;51.400;6.692;2023-12-28T10:16:42;12.60;72.10
78325;DHT22;67584;51.400;6.692;2023-12-28T10:19:07;12.30;72.50
78325;DHT22;67584;51.400;6.692;2023-12-28T10:21:33;12.20;72.30
78325;DHT22;67584;51.400;6.692;2023-12-28T10:23:59;12.10;72.80
78325;DHT22;67584;51.400;6.692;2023-12-28T10:26:26;12.10;72.90
78325;DHT22;67584;51.400;6.692;2023-12-28T10:28:59;12.10;73.00
78325;DHT22;67584;51.400;6.692;2023-12-28T10:31:26;12.00;73.20
78325;DHT22;67584;51.400;6.692;2023-12-28T10:33:51;12.20;73.20
78325;DHT22;67584;51.400;6.692;2023-12-28T10:36:19;12.20;73.30
78325;DHT22;67584;51.400;6.692;2023-12-28T10:38:47;12.20;72.90
78325;DHT22;67584;51.400;6.692;2023-12-28T10:41:15;12.20;73.10
78325;DHT22;67584;51.400;6.692;2023-12-28T10:44:04;12.20;72.90
78325;DHT22;67584;51.400;6.692;2023-12-28T10:46:32;12.20;73.50
78325;DHT22;67584;51.400;6.692;2023-12-28T10:49:00;12.20;73.00
78325;DHT22;67584;51.400;6.692;2023-12-28T10:51:30;12.10;73.30
78325;DHT22;67584;51.400;6.692;2023-12-28T10:56:52;12.20;72.90
78325;DHT22;67584;51.400;6.692;2023-12-28T11:00:13;12.20;73.00
78325;DHT22;67584;51.400;6.692;2023-12-28T11:02:54;12.30;72.70
78325;DHT22;67584;51.400;6.692;2023-12-28T11:05:21;12.40;72.90
78325;DHT22;67584;51.400;6.692;2023-12-28T11:07:49;12.40;72.60
78325;DHT22;67584;51.400;6.692;2023-12-28T11:10:16;12.50;72.10
78325;DHT22;67584;51.400;6.692;2023-12-28T11:12:43;12.50;72.00
78325;DHT22;67584;51.400;6.692;2023-12-28T11:15:09;12.40;72.60
78325;DHT22;67584;51.400;6.692;2023-12-28T11:17:37;12.30;72.60
78325;DHT22;67584;51.400;6.692;2023-12-28T11:20:03;12.40;72.70
78325;DHT22;67584;51.400;6.692;2023-12-28T11:22:31;12.20;72.90
78325;DHT22;67584;51.400;6.692;2023-12-28T11:24:57;12.10;72.90
78325;DHT22;67584;51.400;6.692;2023-12-28T11:27:23;12.20;73.00
78325;DHT22;67584;51.400;6.692;2023-12-28T11:29:49;12.20;73.00
78325;DHT22;67584;51.400;6.692;2023-12-28T11:32:17;12.30;73.20
78325;DHT22;67584;51.400;6.692;2023-12-28T11:34:44;12.30;72.40
78325;DHT22;67584;51.400;6.692;2023-12-28T11:37:16;12.40;72.70
78325;DHT22;67584;51.400;6.692;2023-12-28T11:39:44;12.40;72.10
78325;DHT22;67584;51.400;6.692;2023-12-28T11:42:10;12.30;72.40
78325;DHT22;67584;51.400;6.692;2023-12-28T11:44:43;12.40;71.80
78325;DHT22;67584;51.400;6.692;2023-12-28T11:47:24;12.30;71.80
78325;DHT22;67584;51.400;6.692;2023-12-28T11:49:50;12.40;71.80
78325;DHT22;67584;51.400;6.692;2023-12-28T11:52:28;12.50;71.80
78325;DHT22;67584;51.400;6.692;2023-12-28T11:54:55;12.50;72.10
78325;DHT22;67584;51.400;6.692;2023-12-28T11:57:21;12.50;71.60
78325;DHT22;67584;51.400;6.692;2023-12-28T11:59:58;12.50;71.40
78325;DHT22;67584;51.400;6.692;2023-12-28T12:02:24;12.50;72.00
78325;DHT22;67584;51.400;6.692;2023-12-28T12:04:50;12.50;70.90
78325;DHT22;67584;51.400;6.692;2023-12-28T12:07:16;12.60;72.00
78325;DHT22;67584;51.400;6.692;2023-12-28T12:09:42;12.60;70.50
78325;DHT22;67584;51.400;6.692;2023-12-28T12:12:08;12.50;70.80
78325;DHT22;67584;51.400;6.692;2023-12-28T12:14:34;12.50;70.90
78325;DHT22;67584;51.400;6.692;2023-12-28T12:17:01;12.60;71.00
78325;DHT22;67584;51.400;6.692;2023-12-28T12:19:27;12.60;70.60
78325;DHT22;67584;51.400;6.692;2023-12-28T12:21:53;12.70;71.20
78325;DHT22;67584;51.400;6.692;2023-12-28T12:24:20;12.70;70.70
78325;DHT22;67584;51.400;6.692;2023-12-28T12:26:46;12.70;70.40
78325;DHT22;67584;51.400;6.692;2023-12-28T12:29:12;12.60;70.90
78325;DHT22;67584;51.400;6.692;2023-12-28T12:31:38;12.60;70.30
78325;DHT22;67584;51.400;6.692;2023-12-28T12:34:07;12.60;70.80
78325;DHT22;67584;51.400;6.692;2023-12-28T12:36:33;12.60;70.00
78325;DHT22;67584;51.400;6.692;2023-12-28T12:38:59;12.70;70.30
78325;DHT22;67584;51.400;6.692;2023-12-28T12:41:26;12.70;70.30
78325;DHT22;67584;51.400;6.692;2023-12-28T12:43:52;12.80;70.20
78325;DHT22;67584;51.400;6.692;2023-12-28T12:46:17;12.80;69.60
78325;DHT22;67584;51.400;6.692;2023-12-28T12:48:54;12.70;70.00
78325;DHT22;67584;51.400;6.692;2023-12-28T12:51:20;12.60;70.40
78325;DHT22;67584;51.400;6.692;2023-12-28T12:53:46;12.60;70.70
78325;DHT22;67584;51.400;6.692;2023-12-28T12:56:12;12.60;70.80
78325;DHT22;67584;51.400;6.692;2023-12-28T12:58:38;12.60;70.30
78325;DHT22;67584;51.400;6.692;2023-12-28T13:01:03;12.70;70.70
78325;DHT22;67584;51.400;6.692;2023-12-28T13:03:29;12.60;70.80
78325;DHT22;67584;51.400;6.692;2023-12-28T13:05:56;12.60;70.30
78325;DHT22;67584;51.400;6.692;2023-12-28T13:08:22;12.60;69.00
78325;DHT22;67584;51.400;6.692;2023-12-28T13:10:48;12.70;69.00
78325;DHT22;67584;51.400;6.692;2023-12-28T13:13:15;12.60;69.60
78325;DHT22;67584;51.400;6.692;2023-12-28T13:15:41;12.60;68.70
78325;DHT22;67584;51.400;6.692;2023-12-28T13:18:06;12.70;69.30
78325;DHT22;67584;51.400;6.692;2023-12-28T13:20:32;12.60;69.10
78325;DHT22;67584;51.400;6.692;2023-12-28T13:22:58;12.60;68.70
78325;DHT22;67584;51.400;6.692;2023-12-28T13:25:23;12.60;68.60
78325;DHT22;67584;51.400;6.692;2023-12-28T13:27:49;12.50;68.90
78325;DHT22;67584;51.400;6.692;2023-12-28T13:30:15;12.60;69.40
78325;DHT22;67584;51.400;6.692;2023-12-28T13:32:40;12.50;69.60
78325;DHT22;67584;51.400;6.692;2023-12-28T13:35:06;12.60;69.20
78325;DHT22;67584;51.400;6.692;2023-12-28T13:37:32;12.60;69.20
78325;DHT22;67584;51.400;6.692;2023-12-28T13:39:58;12.60;69.50
78325;DHT22;67584;51.400;6.692;2023-12-28T13:42:23;12.60;68.90
78325;DHT22;67584;51.400;6.692;2023-12-28T13:44:49;12.60;68.30
78325;DHT22;67584;51.400;6.692;2023-12-28T13:47:15;12.60;68.90
78325;DHT22;67584;51.400;6.692;2023-12-28T13:49:41;12.50;68.40
78325;DHT22;67584;51.400;6.692;2023-12-28T13:52:06;12.50;68.70
78325;DHT22;67584;51.400;6.692;2023-12-28T13:54:32;12.40;69.00
78325;DHT22;67584;51.400;6.692;2023-12-28T13:56:57;12.40;69.00
78325;DHT22;67584;51.400;6.692;2023-12-28T13:59:24;12.40;68.80
78325;DHT22;67584;51.400;6.692;2023-12-28T14:01:50;12.40;68.70
78325;DHT22;67584;51.400;6.692;2023-12-28T14:04:16;12.40;68.80
78325;DHT22;67584;51.400;6.692;2023-12-28T14:06:41;12.40;68.90
78325;DHT22;67584;51.400;6.692;2023-12-28T14:09:07;12.30;69.20
78325;DHT22;67584;51.400;6.692;2023-12-28T14:11:34;12.30;68.90
78325;DHT22;67584;51.400;6.692;2023-12-28T14:13:59;12.30;69.00
78325;DHT22;67584;51.400;6.692;2023-12-28T14:16:25;12.20;68.70
78325;DHT22;67584;51.400;6.692;2023-12-28T14:18:51;12.30;69.00
78325;DHT22;67584;51.400;6.692;2023-12-28T14:21:18;12.20;69.30
78325;DHT22;67584;51.400;6.692;2023-12-28T14:23:44;12.10;69.40
78325;DHT22;67584;51.400;6.692;2023-12-28T14:26:12;12.00;69.80
78325;DHT22;67584;51.400;6.692;2023-12-28T14:28:44;12.10;69.80
78325;DHT22;67584;51.400;6.692;2023-12-28T14:31:11;12.10;69.50
78325;DHT22;67584;51.400;6.692;2023-12-28T14:33:38;12.10;69.70
78325;DHT22;67584;51.400;6.692;2023-12-28T14:36:14;12.10;70.10
78325;DHT22;67584;51.400;6.692;2023-12-28T14:38:43;12.10;70.30
78325;DHT22;67584;51.400;6.692;2023-12-28T14:41:09;11.90;70.50
78325;DHT22;67584;51.400;6.692;2023-12-28T14:43:34;11.80;70.90
78325;DHT22;67584;51.400;6.692;2023-12-28T14:46:01;11.90;71.00
78325;DHT22;67584;51.400;6.692;2023-12-28T14:48:26;11.80;71.40
78325;DHT22;67584;51.400;6.692;2023-12-28T14:50:52;11.70;71.10
78325;DHT22;67584;51.400;6.692;2023-12-28T14:53:17;11.80;71.40
78325;DHT22;67584;51.400;6.692;2023-12-28T14:55:43;11.60;71.60
78325;DHT22;67584;51.400;6.692;2023-12-28T14:58:09;11.70;71.70
78325;DHT22;67584;51.400;6.692;2023-12-28T15:00:34;11.70;71.80
78325;DHT22;67584;51.400;6.692;2023-12-28T15:03:00;11.60;71.40
78325;DHT22;67584;51.400;6.692;2023-12-28T15:05:26;11.60;71.70
78325;DHT22;67584;51.400;6.692;2023-12-28T15:07:52;11.50;71.50
78325;DHT22;67584;51.400;6.692;2023-12-28T15:10:18;11.50;71.50
78325;DHT22;67584;51.400;6.692;2023-12-28T15:12:44;11.40;71.70
78325;DHT22;67584;51.400;6.692;2023-12-28T15:15:10;11.30;72.30
78325;DHT22;67584;51.400;6.692;2023-12-28T15:17:38;11.20;72.30
78325;DHT22;67584;51.400;6.692;2023-12-28T15:20:04;11.10;72.80
78325;DHT22;67584;51.400;6.692;2023-12-28T15:22:30;11.10;73.00
78325;DHT22;67584;51.400;6.692;2023-12-28T15:24:56;11.10;72.80
78325;DHT22;67584;51.400;6.692;2023-12-28T15:27:24;11.10;72.80
78325;DHT22;67584;51.400;6.692;2023-12-28T15:29:49;11.00;72.90
78325;DHT22;67584;51.400;6.692;2023-12-28T15:32:15;11.10;72.70
78325;DHT22;67584;51.400;6.692;2023-12-28T15:34:40;11.20;72.90
78325;DHT22;67584;51.400;6.692;2023-12-28T15:37:06;11.10;72.70